Flight Track Log - Related Links

Times and Time Zones

All times are in EST time to prevent confusion due to time zone crossing. See the N41NW flight status page for this flight to view local times or setup timezone preferences in your user account.

Time Position Orientation Groundspeed Altitude Reporting Facility
EST Latitude Longitude Course Direction KTS km/h feet Rate Location/Type
Mon 09:55:40 30.1333 -97.6167 65° Northeast 253 468 41.000  Level
Mon 09:56:40 30.1667 -97.5333 55° Northeast 279 517 9.200 -14.400 Descending
Mon 09:57:40 30.2167 -97.4500 55° Northeast 279 517 12.200 3.050 Climbing
Mon 09:58:40 30.2667 -97.3667 55° Northeast 295 546 15.300 2.450 Climbing
Mon 09:59:40 30.3167 -97.2833 60° Northeast 320 592 17.100 1.700 Climbing
Mon 10:00:40 30.3667 -97.1833 90° East 341 631 18.700 1.650 Climbing
Mon 10:01:40 30.3667 -97.0500 99° East 381 705 20.400 1.750 Climbing
Mon 10:02:40 30.3500 -96.9333 90° East 391 724 22.200 1.550 Climbing
Mon 10:03:40 30.3500 -96.8000 90° East 405 750 23.500 1.800 Climbing
Mon 10:04:40 30.3500 -96.6500 90° East 426 789 25.800 1.750 Climbing
Mon 10:05:40 30.3500 -96.5167 98° East 419 776 27.000 1.200 Climbing
Mon 10:06:40 30.3333 -96.3833 97° East 431 798 28.200 1.300 Climbing
Mon 10:07:40 30.3167 -96.2333 98° East 431 798 29.600 1.400 Climbing
Mon 10:08:40 30.3000 -96.1000 90° East 447 827 31.000 1.300 Climbing
Mon 10:09:40 30.3000 -95.9500 63° Northeast 447 827 32.200 1.200 Climbing
Mon 10:10:40 30.3667 -95.8000 60° Northeast 456 845 33.400 1.250 Climbing
Mon 10:11:40 30.4333 -95.6667 69° East 472 874 34.700 1.000 Climbing
Mon 10:12:40 30.4833 -95.5167 75° East 486 900 35.400 850 Climbing
Mon 10:13:40 30.5167 -95.3667 69° East 486 900 36.400 1.000 Climbing
Mon 10:14:40 30.5667 -95.2167 76° East 486 900 37.400 850 Climbing
Mon 10:15:40 30.6000 -95.0667 63° Northeast 494 914 38.100 800 Climbing
Mon 10:16:40 30.6667 -94.9167 69° East 488 904 39.000 450 Climbing
Mon 10:17:40 30.7167 -94.7667 77° East 494 914 39.000  Level
Mon 10:18:40 30.7500 -94.6000 75° East 500 925 39.000  Level
Mon 10:19:40 30.7833 -94.4500 65° Northeast 510 945 39.000  Level
Mon 10:20:40 30.8500 -94.2833 69° East 521 966 39.000  Level
Mon 10:21:40 30.9000 -94.1333 71° East 526 974 39.000  Level
Mon 10:22:40 30.9500 -93.9667 71° East 526 974 39.000  Level
Mon 10:23:40 31.0000 -93.8000 77° East 526 974 39.000  Level
Mon 10:24:40 31.0333 -93.6333 63° Northeast 521 966 39.000  Level
Mon 10:25:40 31.1000 -93.4833 71° East 521 966 39.000  Level
Mon 10:26:40 31.1500 -93.3167 77° East 521 966 39.000  Level
Mon 10:27:40 31.1833 -93.1500 71° East 521 966 39.000  Level
Mon 10:28:40 31.2333 -92.9833 71° East 521 966 39.000  Level
Mon 10:29:40 31.2833 -92.8167 69° East 521 966 39.000  Level
Mon 10:30:40 31.3333 -92.6667 71° East 521 966 39.000  Level
Mon 10:31:40 31.3833 -92.5000 71° East 521 966 39.000  Level
Mon 10:32:40 31.4333 -92.3333 75° East 529 980 39.000  Level
Mon 10:33:40 31.4667 -92.1833 90° East 522 967 39.000  Level
Mon 10:33:45 31.4667 -92.1667 69° East 518 959 39.000  Level
Mon 10:34:40 31.5167 -92.0167 90° East 522 967 39.000  Level
Mon 10:34:45 31.5167 -92.0000 72° East 518 959 39.000  Level
Mon 10:35:45 31.5667 -91.8167 71° East 537 995 39.000  Level
Mon 10:36:45 31.6167 -91.6500 69° East 527 975 39.000  Level
Mon 10:37:45 31.6667 -91.5000 77° East 521 966 39.000  Level
Mon 10:38:45 31.7000 -91.3333 71° East 521 966 39.000  Level
Mon 10:39:45 31.7500 -91.1667 71° East 521 966 39.000  Level
Mon 10:40:45 31.8000 -91.0000 71° East 521 966 39.000  Level
Mon 10:41:45 31.8500 -90.8333 75° East 516 956 39.000  Level
Mon 10:42:45 31.8833 -90.6833 70° East 516 956 39.000  Level
Mon 10:43:45 31.9333 -90.5167 70° East 521 966 39.000  Level
Mon 10:44:45 31.9833 -90.3500 77° East 521 966 39.000  Level
Mon 10:45:45 32.0167 -90.1833 70° East 521 966 39.000  Level
Mon 10:46:45 32.0667 -90.0167 75° East 516 956 39.000  Level
Mon 10:47:45 32.1000 -89.8667 70° East 516 956 39.000  Level
Mon 10:48:45 32.1500 -89.7000 77° East 521 966 39.000 -150 Level
Mon 10:49:45 32.1833 -89.5333 70° East 516 956 38.700 -850 Descending
Mon 10:50:45 32.2333 -89.3667 70° East 516 956 37.300 -1.200 Descending
Mon 10:51:45 32.2833 -89.2000 75° East 521 966 36.300 -1.450 Descending
Mon 10:52:45 32.3167 -89.0500 72° East 521 966 34.400 -1.800 Descending
Mon 10:53:45 32.3667 -88.8667 68° East 521 966 32.700 -1.750 Descending
Mon 10:54:45 32.4167 -88.7167 50° Northeast 502 930 30.900 -1.900 Descending
Mon 10:55:45 32.5000 -88.6000 44° Northeast 497 921 28.900 -1.750 Descending
Mon 10:56:45 32.6000 -88.4833 53° Northeast 485 898 27.400 -1.900 Descending
Mon 10:57:45 32.6833 -88.3500 50° Northeast 485 898 25.100 -2.000 Descending
Mon 10:58:45 32.7667 -88.2333 360° North 480 888 23.400 -1.500 Descending
Mon 10:58:53 32.7833 -88.2333 59° Northeast 480 888 23.400 -1.941 Level
Mon 10:59:53 32.8500 -88.1000 45° Northeast 475 880 21.200 -1.950 Descending
Mon 11:00:53 32.9333 -88.0000 50° Northeast 459 850 19.500 -1.600 Descending
Mon 11:01:53 33.0167 -87.8833 52° Northeast 436 808 18.000 -1.650 Descending
Mon 11:02:53 33.0833 -87.7833 51° Northeast 425 787 16.200 -1.600 Descending
Mon 11:03:53 33.1500 -87.6833 51° Northeast 407 753 14.800 -1.500 Descending
Mon 11:04:53 33.2167 -87.5833 54° Northeast 388 719 13.200 -1.400 Descending
Mon 11:05:53 33.2667 -87.5000 51° Northeast 365 676 12.000 -100 Descending
Mon 11:06:53 33.3333 -87.4000 40° Northeast 341 631 13.000 -1.050 Climbing
Mon 11:07:53 33.4000 -87.3333 54° Northeast 325 602 9.900 -2.000 Descending
Mon 11:08:53 33.4500 -87.2500 90° East 312 578 9.000 -1.240 Descending
Mon 11:09:54 33.4500 -87.1667 79° East 285 528 7.400 -1.884 Descending
Mon 11:10:54 33.4667 -87.0667 73° East 280 518 5.200 -1.600 Descending
Mon 11:11:54 33.4833 -87.0000 90° East 256 475 4.200 -1.059 Descending
Mon 11:12:53 33.4833 -86.9333 73° East 224 415 3.100 -756 Descending
Mon 11:13:53 33.5000 -86.8667 73° East 200 370 2.700 -400 Descending

Login

Don't have an account? Register now (free) for customized features, flight alerts, and more!